createdAt,value
2022-10-24T00:01:21.790Z,24.44
2022-10-24T00:03:50.214Z,24.12
2022-10-24T00:06:18.980Z,24.21
2022-10-24T00:08:46.205Z,23.90
2022-10-24T00:11:24.538Z,24.03
2022-10-24T00:13:52.932Z,24.27
2022-10-24T00:16:20.134Z,24.34
2022-10-24T00:18:47.626Z,24.39
2022-10-24T00:21:15.247Z,24.36
2022-10-24T00:23:42.305Z,24.37
2022-10-24T00:26:10.965Z,24.40
2022-10-24T00:28:38.842Z,24.14
2022-10-24T00:31:07.647Z,24.47
2022-10-24T00:33:35.038Z,24.34
2022-10-24T00:36:01.979Z,24.43
2022-10-24T00:38:29.031Z,24.53
2022-10-24T00:40:56.089Z,24.40
2022-10-24T00:43:26.225Z,24.61
2022-10-24T00:45:57.807Z,24.86
2022-10-24T00:48:46.155Z,24.54
2022-10-24T00:51:24.828Z,24.78
2022-10-24T00:56:36.599Z,24.84
2022-10-24T00:59:12.757Z,25.16
2022-10-24T01:01:40.535Z,24.72
2022-10-24T01:04:11.994Z,24.65
2022-10-24T01:07:25.985Z,24.73
2022-10-24T01:10:11.874Z,25.03
2022-10-24T01:12:55.316Z,24.95
2022-10-24T01:15:38.864Z,24.87
2022-10-24T01:18:33.927Z,24.86
2022-10-24T01:21:24.731Z,24.58
2022-10-24T01:24:07.539Z,24.28
2022-10-24T01:27:38.859Z,24.56
2022-10-24T01:30:12.555Z,24.41
2022-10-24T01:33:07.355Z,24.62
2022-10-24T01:35:55.199Z,24.86
2022-10-24T01:38:48.203Z,24.38
2022-10-24T01:41:21.216Z,24.75
2022-10-24T01:43:57.101Z,24.66
2022-10-24T01:46:32.501Z,24.84
2022-10-24T01:49:06.699Z,24.26
2022-10-24T01:51:35.440Z,24.18
2022-10-24T01:54:04.206Z,24.06
2022-10-24T01:56:31.390Z,24.30
2022-10-24T01:59:28.810Z,24.41
2022-10-24T02:02:11.650Z,24.42
2022-10-24T02:05:07.480Z,24.15
2022-10-24T02:07:37.172Z,24.38
2022-10-24T02:10:26.496Z,23.86
2022-10-24T02:13:15.750Z,24.07
2022-10-24T02:15:49.018Z,24.06
2022-10-24T02:18:16.570Z,24.26
2022-10-24T02:20:54.899Z,24.17
2022-10-24T02:23:40.254Z,24.07
2022-10-24T02:26:13.566Z,23.95
2022-10-24T02:28:45.660Z,23.99
2022-10-24T02:31:21.119Z,23.83
2022-10-24T02:33:49.769Z,23.71
2022-10-24T02:36:21.459Z,23.59
2022-10-24T02:38:50.968Z,24.10
2022-10-24T02:41:26.626Z,24.07
2022-10-24T02:43:54.716Z,23.75
2022-10-24T02:46:23.282Z,23.45
2022-10-24T02:48:56.893Z,23.55
2022-10-24T02:51:28.801Z,23.52
2022-10-24T02:53:57.858Z,23.19
2022-10-24T02:56:24.958Z,23.26
2022-10-24T02:58:51.958Z,22.91
2022-10-24T03:01:19.415Z,23.07
2022-10-24T03:03:47.162Z,23.35
2022-10-24T03:06:14.164Z,23.46
2022-10-24T03:08:41.289Z,23.60
2022-10-24T03:11:08.290Z,23.66
2022-10-24T03:13:35.519Z,23.55
2022-10-24T03:16:06.686Z,23.47
2022-10-24T03:18:36.278Z,23.15
2022-10-24T03:21:03.367Z,23.76
2022-10-24T03:23:30.967Z,23.50
2022-10-24T03:25:59.042Z,23.80
2022-10-24T03:28:26.396Z,23.36
2022-10-24T03:30:53.668Z,23.28
2022-10-24T03:33:20.700Z,23.07
2022-10-24T03:35:52.491Z,23.35
2022-10-24T03:38:20.167Z,23.67
2022-10-24T03:40:47.227Z,23.14
2022-10-24T03:43:14.588Z,23.47
2022-10-24T03:45:41.909Z,23.21
2022-10-24T03:48:09.046Z,23.14
2022-10-24T03:50:36.132Z,22.97
2022-10-24T03:53:04.040Z,23.17
2022-10-24T03:55:31.617Z,23.31
2022-10-24T03:58:01.642Z,23.44
2022-10-24T04:00:29.439Z,23.06
2022-10-24T04:02:57.104Z,23.18
2022-10-24T04:05:24.129Z,23.01
2022-10-24T04:07:51.144Z,23.47
2022-10-24T04:10:18.423Z,23.26
2022-10-24T04:12:45.401Z,23.21
2022-10-24T04:15:12.720Z,23.15
2022-10-24T04:17:40.333Z,23.52
2022-10-24T04:20:08.007Z,23.92
2022-10-24T04:22:35.005Z,23.43
2022-10-24T04:25:02.262Z,23.81
2022-10-24T04:27:29.248Z,23.62
2022-10-24T04:29:56.429Z,23.65
2022-10-24T04:32:23.426Z,23.34
2022-10-24T04:34:50.446Z,23.53
2022-10-24T04:37:17.427Z,23.49
2022-10-24T04:39:44.602Z,23.44
2022-10-24T04:42:11.678Z,23.19
2022-10-24T04:44:38.665Z,23.42
2022-10-24T04:47:05.688Z,23.54
2022-10-24T04:49:32.737Z,23.77
2022-10-24T04:51:59.673Z,23.54
2022-10-24T04:54:26.672Z,23.57
2022-10-24T04:56:53.672Z,23.30
2022-10-24T04:59:21.064Z,23.01
2022-10-24T05:01:48.661Z,23.01
2022-10-24T05:04:15.932Z,23.26
2022-10-24T05:06:45.025Z,23.57
2022-10-24T05:09:13.213Z,23.13
2022-10-24T05:11:40.796Z,23.05
2022-10-24T05:14:07.892Z,23.38
2022-10-24T05:16:34.894Z,23.34
2022-10-24T05:19:01.854Z,22.89
2022-10-24T05:21:28.877Z,22.95
2022-10-24T05:23:55.964Z,23.19
2022-10-24T05:26:22.925Z,23.27
2022-10-24T05:28:52.443Z,23.02
2022-10-24T05:31:20.001Z,23.08
2022-10-24T05:33:47.108Z,23.29
2022-10-24T05:36:14.035Z,23.33
2022-10-24T05:38:41.135Z,23.43
2022-10-24T05:41:08.111Z,23.47
2022-10-24T05:43:35.131Z,23.80
2022-10-24T05:46:02.192Z,23.51
2022-10-24T05:48:29.141Z,23.50
2022-10-24T05:50:57.884Z,24.03
2022-10-24T05:53:26.752Z,24.10
2022-10-24T05:55:53.868Z,23.66
2022-10-24T05:58:22.292Z,23.60
2022-10-24T06:00:53.735Z,23.22
2022-10-24T06:03:21.609Z,23.57
2022-10-24T06:05:50.377Z,23.65
2022-10-24T06:08:17.526Z,23.52
2022-10-24T06:10:50.586Z,22.71
2022-10-24T06:13:18.375Z,23.39
2022-10-24T06:15:45.576Z,23.41
2022-10-24T06:18:12.619Z,23.78
2022-10-24T06:20:39.776Z,23.57
2022-10-24T06:23:06.886Z,22.73
2022-10-24T06:25:33.923Z,23.64
2022-10-24T06:28:01.157Z,23.32
2022-10-24T06:30:28.406Z,21.12
2022-10-24T06:32:55.524Z,22.39
2022-10-24T06:35:22.779Z,22.47
2022-10-24T06:37:50.213Z,22.28
2022-10-24T06:40:18.661Z,22.73
2022-10-24T06:42:46.322Z,22.75
2022-10-24T06:45:13.752Z,23.49
2022-10-24T06:47:40.937Z,23.32
2022-10-24T06:50:08.780Z,23.66
2022-10-24T06:52:37.922Z,23.78
2022-10-24T06:55:23.296Z,23.94
2022-10-24T06:57:50.809Z,23.90
2022-10-24T07:00:18.181Z,24.03
2022-10-24T07:02:48.234Z,23.67
2022-10-24T07:05:15.409Z,23.65
2022-10-24T07:07:43.965Z,23.53
2022-10-24T07:10:14.186Z,23.34
2022-10-24T07:12:43.555Z,23.51
2022-10-24T07:15:11.304Z,23.81
2022-10-24T07:17:43.422Z,23.53
2022-10-24T07:20:12.669Z,22.70
2022-10-24T07:22:39.894Z,23.18
2022-10-24T07:25:08.354Z,23.75
2022-10-24T07:27:36.051Z,23.33
2022-10-24T07:30:06.203Z,23.24
2022-10-24T07:32:33.870Z,23.15
2022-10-24T07:35:01.114Z,23.71
2022-10-24T07:37:28.393Z,23.70
2022-10-24T07:39:59.293Z,22.61
2022-10-24T07:42:26.918Z,23.10
2022-10-24T07:44:53.925Z,23.47
2022-10-24T07:47:21.068Z,23.80
2022-10-24T07:49:48.162Z,23.41
2022-10-24T07:52:15.247Z,22.70
2022-10-24T07:54:42.478Z,22.60
2022-10-24T07:57:09.669Z,23.14
2022-10-24T07:59:42.137Z,23.25
2022-10-24T08:02:12.884Z,23.22
2022-10-24T08:04:40.596Z,22.94
2022-10-24T08:07:13.084Z,22.71
2022-10-24T08:09:44.122Z,22.83
2022-10-24T08:12:11.278Z,22.69
2022-10-24T08:14:40.425Z,22.33
2022-10-24T08:17:08.003Z,22.14
2022-10-24T08:19:36.142Z,22.68
2022-10-24T08:22:03.804Z,22.34
2022-10-24T08:24:30.847Z,22.24
2022-10-24T08:26:58.068Z,22.28
2022-10-24T08:29:25.627Z,22.29
2022-10-24T08:31:56.414Z,22.35
2022-10-24T08:34:23.744Z,22.11
2022-10-24T08:36:51.102Z,21.95
2022-10-24T08:39:19.744Z,22.02
2022-10-24T08:41:59.315Z,22.29
2022-10-24T08:44:36.145Z,22.36
2022-10-24T08:47:42.691Z,22.45
2022-10-24T08:50:28.239Z,22.84
2022-10-24T08:53:10.196Z,23.16
2022-10-24T08:55:49.668Z,23.15
2022-10-24T08:58:26.005Z,23.25
2022-10-24T09:00:58.279Z,22.85
2022-10-24T09:03:58.480Z,23.01
2022-10-24T09:06:32.080Z,22.79
2022-10-24T09:09:16.575Z,23.13
2022-10-24T09:11:55.723Z,22.66
2022-10-24T09:14:33.839Z,22.64
2022-10-24T09:17:26.602Z,23.14
2022-10-24T09:20:20.007Z,22.60
2022-10-24T09:22:48.258Z,22.81
2022-10-24T09:25:22.016Z,22.76
2022-10-24T09:27:50.080Z,22.98
2022-10-24T09:30:29.996Z,22.30
2022-10-24T09:33:27.763Z,22.47
2022-10-24T09:35:59.557Z,23.19
2022-10-24T09:38:32.025Z,22.84
2022-10-24T09:41:03.879Z,22.95
2022-10-24T09:43:40.044Z,22.73
2022-10-24T09:46:18.314Z,22.60
2022-10-24T09:49:12.709Z,22.63
2022-10-24T09:51:45.415Z,22.57
2022-10-24T09:54:18.673Z,22.71
2022-10-24T09:57:11.553Z,22.65
2022-10-24T09:59:46.639Z,22.54
2022-10-24T10:02:37.691Z,22.63
2022-10-24T10:05:04.751Z,22.09
2022-10-24T10:07:48.352Z,22.45
2022-10-24T10:10:18.331Z,22.76
2022-10-24T10:13:04.406Z,22.43
2022-10-24T10:15:46.618Z,22.54
2022-10-24T10:18:37.104Z,22.71
2022-10-24T10:21:07.083Z,22.25
2022-10-24T10:23:38.292Z,22.53
2022-10-24T10:26:29.190Z,22.90
2022-10-24T10:29:04.957Z,22.61
2022-10-24T10:31:46.677Z,22.92
2022-10-24T10:34:42.674Z,23.12
2022-10-24T10:37:35.945Z,23.35
2022-10-24T10:40:38.056Z,23.00
2022-10-24T10:43:21.860Z,23.20
2022-10-24T10:46:12.128Z,22.39
2022-10-24T10:49:13.991Z,23.84
2022-10-24T10:51:51.634Z,23.43
2022-10-24T10:54:42.898Z,23.76
2022-10-24T10:57:17.631Z,23.78
2022-10-24T10:59:58.981Z,24.13
2022-10-24T11:02:57.545Z,24.07
2022-10-24T11:05:53.641Z,23.68
2022-10-24T11:08:39.660Z,23.18
2022-10-24T11:11:46.834Z,23.43
2022-10-24T11:14:32.384Z,22.98
2022-10-24T11:17:11.714Z,22.23
2022-10-24T11:19:50.003Z,22.82
2022-10-24T11:22:27.918Z,22.71
2022-10-24T11:25:09.023Z,22.24
2022-10-24T11:27:45.314Z,22.84
2022-10-24T11:30:17.577Z,22.73
2022-10-24T11:33:03.971Z,22.95
2022-10-24T11:35:37.199Z,21.77
2022-10-24T11:38:16.159Z,23.31
2022-10-24T11:40:46.583Z,22.70
2022-10-24T11:43:39.184Z,22.42
2022-10-24T11:46:25.213Z,23.05
2022-10-24T11:49:03.717Z,22.44
2022-10-24T11:51:39.204Z,23.94
2022-10-24T11:54:26.551Z,22.84
2022-10-24T11:57:11.699Z,22.17
2022-10-24T11:59:42.432Z,22.34
2022-10-24T12:02:53.699Z,22.69
2022-10-24T12:06:09.186Z,23.49
2022-10-24T12:09:18.964Z,23.11
2022-10-24T12:12:13.584Z,23.13
2022-10-24T12:15:17.349Z,24.24
2022-10-24T12:18:12.055Z,23.56
2022-10-24T12:20:40.726Z,23.34
2022-10-24T12:23:18.991Z,23.04
2022-10-24T12:25:48.972Z,23.74
2022-10-24T12:28:25.755Z,23.41
2022-10-24T12:31:15.336Z,23.69
2022-10-24T12:33:44.837Z,23.40
2022-10-24T12:36:12.461Z,23.61
2022-10-24T12:38:58.009Z,24.39
2022-10-24T12:41:42.996Z,23.61
2022-10-24T12:44:34.532Z,23.14
2022-10-24T12:47:26.725Z,23.26
2022-10-24T12:49:54.402Z,23.59
2022-10-24T12:52:30.693Z,24.30
2022-10-24T12:54:59.894Z,22.99
2022-10-24T12:57:37.561Z,23.24
2022-10-24T13:00:29.849Z,23.16
2022-10-24T13:03:44.862Z,23.26
2022-10-24T13:06:23.620Z,23.24
2022-10-24T13:09:21.670Z,23.79
2022-10-24T13:12:20.771Z,23.63
2022-10-24T13:15:15.452Z,22.79
2022-10-24T13:18:18.029Z,23.74
2022-10-24T13:20:50.564Z,24.32
2022-10-24T13:23:28.593Z,23.55
2022-10-24T13:25:58.846Z,23.73
2022-10-24T13:28:27.405Z,23.33
2022-10-24T13:31:01.121Z,23.73
2022-10-24T13:33:35.180Z,24.16
2022-10-24T13:36:14.916Z,23.59
2022-10-24T13:38:54.643Z,23.72
2022-10-24T13:41:40.468Z,23.03
2022-10-24T13:44:35.494Z,23.17
2022-10-24T13:47:21.513Z,23.32
2022-10-24T13:49:59.537Z,24.16
2022-10-24T13:52:50.301Z,24.28
2022-10-24T13:55:36.411Z,23.51
2022-10-24T13:58:06.390Z,23.81
2022-10-24T14:00:39.924Z,23.74
2022-10-24T14:03:24.399Z,23.76
2022-10-24T14:06:00.926Z,22.89
2022-10-24T14:08:33.601Z,23.69
2022-10-24T14:11:05.857Z,23.77
2022-10-24T14:13:47.986Z,24.23
2022-10-24T14:16:15.489Z,23.51
2022-10-24T14:18:44.702Z,23.64
2022-10-24T14:21:22.611Z,23.49
2022-10-24T14:24:01.765Z,24.64
2022-10-24T14:26:29.630Z,23.41
2022-10-24T14:29:01.007Z,23.88
2022-10-24T14:31:35.860Z,24.08
2022-10-24T14:34:06.252Z,22.90
2022-10-24T14:36:38.106Z,23.84
2022-10-24T14:39:06.299Z,24.00
2022-10-24T14:41:43.258Z,24.11
2022-10-24T14:44:15.646Z,24.01
2022-10-24T14:46:45.439Z,24.02
2022-10-24T14:49:27.411Z,23.87
2022-10-24T14:52:00.620Z,23.47
2022-10-24T14:54:33.268Z,24.11
2022-10-24T14:57:04.444Z,24.33
2022-10-24T14:59:37.959Z,24.50
2022-10-24T15:02:32.626Z,24.60
2022-10-24T15:05:24.548Z,24.10
2022-10-24T15:08:23.190Z,24.22
2022-10-24T15:11:04.278Z,24.50
2022-10-24T15:13:48.221Z,24.03
2022-10-24T15:16:31.968Z,24.31
2022-10-24T15:18:59.712Z,23.66
2022-10-24T15:21:41.772Z,24.06
2022-10-24T15:24:24.567Z,24.26
2022-10-24T15:26:51.994Z,23.67
2022-10-24T15:29:22.868Z,23.14
2022-10-24T15:31:51.972Z,23.59
2022-10-24T15:34:23.898Z,23.57
2022-10-24T15:36:52.869Z,23.53
2022-10-24T15:39:24.687Z,23.58
2022-10-24T15:41:52.713Z,23.57
2022-10-24T15:44:25.685Z,23.72
2022-10-24T15:46:53.667Z,23.50
2022-10-24T15:49:20.908Z,23.31
2022-10-24T15:51:50.607Z,23.66
2022-10-24T15:54:22.126Z,23.37
2022-10-24T15:56:50.165Z,23.37
2022-10-24T15:59:19.801Z,23.30
2022-10-24T16:01:54.910Z,23.59
2022-10-24T16:04:24.111Z,23.41
2022-10-24T16:06:52.587Z,23.32
2022-10-24T16:09:26.632Z,22.79
2022-10-24T16:11:55.114Z,23.39
2022-10-24T16:14:26.183Z,23.28
2022-10-24T16:16:56.422Z,22.96
2022-10-24T16:19:29.055Z,22.88
2022-10-24T16:22:01.204Z,23.05
2022-10-24T16:24:28.983Z,22.79
2022-10-24T16:26:56.876Z,23.12
2022-10-24T16:29:24.043Z,23.16
2022-10-24T16:31:51.187Z,23.15
2022-10-24T16:34:21.776Z,23.25
2022-10-24T16:36:53.486Z,22.77
2022-10-24T16:39:21.595Z,22.97
2022-10-24T16:41:48.576Z,23.11
2022-10-24T16:44:15.847Z,23.02
2022-10-24T16:46:45.457Z,22.84
2022-10-24T16:49:12.607Z,22.78
2022-10-24T16:51:43.246Z,23.03
2022-10-24T16:54:11.370Z,23.10
2022-10-24T16:56:38.695Z,22.95
2022-10-24T16:59:05.847Z,22.74
2022-10-24T17:01:33.353Z,22.54
2022-10-24T17:04:01.358Z,22.33
2022-10-24T17:06:29.239Z,22.60
2022-10-24T17:08:56.367Z,23.32
2022-10-24T17:11:44.479Z,23.09
2022-10-24T17:14:10.625Z,23.17
2022-10-24T17:16:37.898Z,23.43
2022-10-24T17:19:15.106Z,23.11
2022-10-24T17:21:43.318Z,29.80
2022-10-24T17:24:14.483Z,26.27
2022-10-24T17:26:42.307Z,26.03
2022-10-24T17:29:15.691Z,25.75
2022-10-24T17:31:43.002Z,25.58
2022-10-24T17:34:10.681Z,25.35
2022-10-24T17:36:39.176Z,24.73
2022-10-24T17:39:40.418Z,24.98
2022-10-24T17:42:10.677Z,24.28
2022-10-24T17:44:38.377Z,24.46
2022-10-24T17:47:06.311Z,24.85
2022-10-24T17:49:33.340Z,24.70
2022-10-24T17:52:00.972Z,24.43
2022-10-24T17:54:28.317Z,24.80
2022-10-24T17:56:55.678Z,25.32
2022-10-24T17:59:23.199Z,25.31
2022-10-24T18:01:50.535Z,25.13
2022-10-24T18:04:17.786Z,25.24
2022-10-24T18:06:44.872Z,25.34
2022-10-24T18:09:12.633Z,25.15
2022-10-24T18:11:40.203Z,24.73
2022-10-24T18:14:07.955Z,24.89
2022-10-24T18:16:38.094Z,24.29
2022-10-24T18:19:06.211Z,24.75
2022-10-24T18:21:33.524Z,24.37
2022-10-24T18:24:00.601Z,23.42
2022-10-24T18:26:28.435Z,23.34
2022-10-24T18:28:56.495Z,51.96
2022-10-24T18:31:26.972Z,54.53
2022-10-24T18:33:55.141Z,-144.84
2022-10-24T18:36:25.000Z,-144.84
2022-10-24T18:38:55.381Z,-144.84
2022-10-24T18:41:31.020Z,-144.84
2022-10-24T18:44:03.976Z,-144.84
2022-10-24T18:46:32.349Z,-144.84
2022-10-24T18:49:00.210Z,-144.84
2022-10-24T18:51:36.260Z,-144.84
2022-10-24T18:54:07.932Z,-144.84
2022-10-24T18:56:35.470Z,-144.84
2022-10-24T18:59:02.694Z,-144.84
2022-10-24T19:01:54.900Z,-144.84
